Latest Weather Observations for Gympie

IDQ60901

Issued at 8:31 pm EST Sunday 7 February 2016 (issued every 10 minutes, with the page automatically refreshed every 10 minutes)

About weather observations | Map of Brisbane area stations | Latest observations for Brisbane area | Other Formats
Station Details ID: 040093 Name: GYMPIE Lat: -26.18 Lon: 152.64 Height: 64.5 m
Data from the previous 72 hours. | See also: Recent months at Gympie
Date/Time
EST
Tmp

°C
App
Tmp
°C
Dew
Point
°C
Rel
Hum
%
Delta-T

°C
Wind Press
QNH
hPa
Press
MSL
hPa
Rain
since
9 am
mm
Dir
 
Spd
km/h
Gust
km/h
Spd
kts
Gust
kts
07/08:30pm 22.7 24.9 19.1 80 2.3 SSE 6 11 3 6 1014.4 1014.1 1.6
07/08:00pm 22.9 25.1 19.1 79 2.4 SSE 6 9 3 5 1014.1 1013.7 1.6
07/07:30pm 23.3 24.9 19.2 78 2.6 SSE 9 15 5 8 1014.0 1013.6 1.6
07/07:00pm 23.4 25.2 19.5 79 2.5 SSE 9 17 5 9 1013.7 1013.3 1.6
07/06:30pm 24.0 24.7 19.7 77 2.8 SSE 15 20 8 11 1013.3 1012.9 1.6
07/06:00pm 24.8 25.7 20.1 75 3.1 SSE 15 28 8 15 1012.8 1012.4 1.6
07/05:30pm 25.7 26.7 20.3 72 3.5 SE 15 26 8 14 1012.4 1012.0 1.6
07/05:00pm 25.3 25.7 19.9 72 3.5 SE 17 33 9 18 1012.0 1011.6 1.6
07/04:30pm 25.7 27.2 20.5 73 3.4 SE 13 20 7 11 1011.7 1011.3 1.6
07/04:00pm 25.3 26.7 21.0 77 2.8 SE 15 24 8 13 1011.7 1011.3 1.6
07/03:30pm 25.0 25.8 20.7 77 2.8 SE 17 30 9 16 1011.7 1011.3 1.6
07/03:00pm 25.3 26.9 20.8 76 3.0 SSE 13 20 7 11 1011.5 1011.1 1.6
07/02:30pm 24.5 26.1 22.2 87 1.5 SSE 17 37 9 20 1011.8 1011.4 1.6
07/02:00pm 26.7 29.1 21.5 73 3.5 SSE 11 20 6 11 1011.8 1011.4 0.4
07/01:30pm 24.9 26.4 21.2 80 2.4 SSE 15 30 8 16 1012.4 1012.0 0.4
07/01:00pm 26.6 29.0 21.6 74 3.3 SE 11 20 6 11 1012.4 1012.0 0.4
07/12:30pm 24.4 27.0 21.9 86 1.7 SSE 11 24 6 13 1012.7 1012.3 0.4
07/12:00pm 25.1 26.4 20.8 77 2.8 SE 15 24 8 13 1012.9 1012.5 0.2
07/11:30am 26.0 28.6 21.9 78 2.7 SSE 11 17 6 9 1012.7 1012.3 0.2
07/11:00am 23.2 24.5 20.9 87 1.5 SSE 15 22 8 12 1012.8 1012.4 0.2
07/10:30am 25.7 27.6 21.4 77 2.9 SE 13 24 7 13 1012.6 1012.2 0.0
07/10:00am 25.7 27.5 20.3 72 3.5 SSE 11 20 6 11 1012.6 1012.2 0.0
07/09:30am 25.3 25.7 19.9 72 3.5 SSE 17 28 9 15 1012.7 1012.3 0.0
07/09:00am 24.5 26.8 20.6 79 2.6 SE 9 19 5 10 1012.7 1012.3 2.4
07/08:30am 24.0 26.0 20.7 82 2.2 SSE 11 17 6 9 1012.7 1012.3 2.4
07/08:00am 23.1 26.3 21.7 92 0.9 SSE 7 15 4 8 1012.7 1012.3 2.4
07/07:30am 22.9 24.8 20.6 87 1.5 SSE 11 20 6 11 1012.5 1012.1 2.4
07/07:00am 23.1 25.9 20.8 87 1.5 SSE 7 11 4 6 1012.3 1011.9 2.4
07/06:30am 22.5 25.7 20.6 89 1.2 SE 4 6 2 3 1012.2 1011.8 2.4
07/06:00am 22.0 25.1 20.3 90 1.1 SE 4 6 2 3 1011.7 1011.3 2.4
07/05:30am 22.0 25.0 20.1 89 1.2 SE 4 6 2 3 1011.5 1011.1 2.4
07/05:00am 22.1 25.1 20.0 88 1.4 SE 4 6 2 3 1011.1 1010.7 2.4
07/04:30am 22.0 25.0 20.1 89 1.2 SE 4 7 2 4 1010.4 1010.0 2.4
07/04:00am 22.1 24.9 20.4 90 1.1 SSE 6 9 3 5 1010.3 1009.9 2.4
07/03:30am 22.1 25.0 20.7 92 0.9 SE 6 7 3 4 1010.3 1009.9 2.4
07/03:00am 22.1 25.5 20.9 93 0.8 SE 4 7 2 4 1010.4 1010.0 2.4
07/02:30am 22.2 25.6 21.0 93 0.8 SE 4 6 2 3 1010.5 1010.1 2.4
07/02:00am 22.1 25.5 20.9 93 0.8 SE 4 6 2 3 1010.6 1010.2 2.4
07/01:30am 22.1 25.6 21.1 94 0.7 S 4 4 2 2 1010.6 1010.2 2.4
07/01:00am 22.1 25.5 20.9 93 0.8 S 4 4 2 2 1011.0 1010.6 2.4
07/12:30am 22.2 25.3 21.0 93 0.8 SSE 6 11 3 6 1011.3 1010.9 2.4
07/12:00am 22.4 25.5 21.4 94 0.7 SSE 7 11 4 6 1011.6 1011.2 2.0
 
Date/Time
EST
Tmp

°C
App
Tmp
°C
Dew
Point
°C
Rel
Hum
%
Delta-T

°C
Wind Press
QNH
hPa
Press
MSL
hPa
Rain
since
9 am
mm
Dir
 
Spd
km/h
Gust
km/h
Spd
kts
Gust
kts
06/11:30pm 22.4 25.6 21.2 93 0.8 SSE 6 7 3 4 1011.9 1011.5 2.0
06/11:00pm 22.6 25.6 21.2 92 0.9 S 7 13 4 7 1012.0 1011.6 2.0
06/10:30pm 22.9 26.1 21.2 90 1.1 SSE 6 15 3 8 1012.2 1011.8 1.8
06/10:00pm 23.1 26.2 21.0 88 1.4 SSE 6 9 3 5 1012.2 1011.8 1.8
06/09:30pm 23.1 26.3 21.2 89 1.2 S 6 7 3 4 1012.3 1011.9 1.8
06/09:00pm 23.3 26.5 21.2 88 1.4 SSE 6 7 3 4 1012.1 1011.7 1.8
06/08:30pm 23.6 26.5 21.1 86 1.6 SE 7 11 4 6 1011.6 1011.2 1.8
06/08:00pm 23.6 26.4 20.9 85 1.8 SE 7 15 4 8 1011.4 1011.0 1.8
06/07:30pm 23.9 26.6 20.6 82 2.2 ESE 7 15 4 8 1011.0 1010.6 1.8
06/07:00pm 24.0 26.8 20.9 83 2.0 SE 7 15 4 8 1010.4 1010.0 1.8
06/06:30pm 24.2 26.6 20.9 82 2.2 SE 9 15 5 8 1010.1 1009.7 1.8
06/06:00pm 24.1 27.1 21.2 84 1.9 SE 7 13 4 7 1009.8 1009.4 1.8
06/05:30pm 24.0 27.8 21.7 87 1.5 SSE 4 9 2 5 1009.3 1008.9 1.8
06/05:00pm 23.8 26.6 21.5 87 1.5 SE 9 17 5 9 1008.9 1008.5 1.8
06/04:30pm 23.2 26.0 21.5 90 1.1 ESE 9 20 5 11 1008.9 1008.5 1.8
06/04:00pm 24.3 26.5 21.2 83 2.0 ESE 11 17 6 9 1008.9 1008.5 1.4
06/03:30pm 25.7 26.3 20.3 72 3.5 SE 17 32 9 17 1008.8 1008.4 1.4
06/03:00pm 25.8 27.3 20.6 73 3.4 ESE 13 20 7 11 1008.7 1008.3 1.4
06/02:30pm 26.0 26.6 20.3 71 3.7 SE 17 28 9 15 1008.8 1008.4 1.4
06/02:00pm 26.2 27.7 20.5 71 3.7 SE 13 20 7 11 1008.8 1008.4 1.4
06/01:30pm 26.5 26.9 20.6 70 3.9 SE 19 30 10 16 1009.0 1008.6 1.4
06/01:00pm 26.6 28.0 21.1 72 3.7 SE 15 30 8 16 1009.2 1008.8 1.4
06/12:30pm 26.0 27.5 21.2 75 3.2 ESE 15 33 8 18 1009.4 1009.0 1.4
06/12:00pm 26.3 28.1 21.1 73 3.4 SE 13 26 7 14 1009.6 1009.2 1.2
06/11:30am 24.7 25.3 21.0 80 2.4 SE 19 32 10 17 1009.9 1009.5 1.0
06/11:00am 25.6 28.2 21.9 80 2.5 SE 11 19 6 10 1010.0 1009.6 0.8
06/10:30am 25.9 28.2 22.0 79 2.6 SE 13 24 7 13 1010.1 1009.7 0.8
06/10:00am 24.1 26.0 21.4 85 1.8 SSE 13 22 7 12 1010.4 1010.0 0.6
06/09:30am 24.6 28.0 22.7 89 1.3 SE 9 15 5 8 1010.5 1010.1 0.4
06/09:00am 24.5 27.3 21.6 84 1.9 SE 9 19 5 10 1010.4 1010.0 1.4
06/08:30am 24.6 27.9 22.5 88 1.4 SE 9 17 5 9 1010.3 1009.9 1.4
06/08:00am 23.3 26.5 21.7 91 1.1 SSE 7 13 4 7 1010.2 1009.8 1.4
06/07:30am 23.1 26.6 22.1 94 0.7 SSE 7 11 4 6 1009.9 1009.5 1.4
06/07:00am 22.5 25.7 21.7 95 0.5 S 7 13 4 7 1009.7 1009.3 1.4
06/06:30am 22.1 25.2 21.4 96 0.5 SSE 7 13 4 7 1009.4 1009.0 1.4
06/06:00am 21.9 24.9 21.2 96 0.5 S 7 13 4 7 1009.0 1008.6 1.4
06/05:30am 21.8 24.7 21.1 96 0.5 SSE 7 13 4 7 1008.6 1008.2 1.4
06/05:00am 21.9 24.9 21.2 96 0.5 SSE 7 9 4 5 1008.3 1007.9 1.2
06/04:30am 21.9 25.5 21.2 96 0.5 SSE 4 7 2 4 1008.0 1007.6 1.2
06/04:00am 21.9 25.5 21.2 96 0.5 SSE 4 6 2 3 1007.9 1007.5 1.0
06/03:30am 22.2 25.1 21.0 93 0.8 SSE 7 13 4 7 1007.7 1007.3 0.6
06/03:00am 22.2 25.0 20.8 92 0.9 SSE 7 13 4 7 1007.6 1007.2 0.6
06/02:30am 22.4 25.0 20.5 89 1.2 SSE 7 13 4 7 1007.6 1007.2 0.6
06/02:00am 22.5 24.9 20.8 90 1.1 SSE 9 17 5 9 1007.9 1007.5 0.6
06/01:30am 22.3 24.7 20.9 92 0.9 SSE 9 13 5 7 1008.2 1007.8 0.6
06/01:00am 22.6 24.9 20.7 89 1.2 SSE 9 15 5 8 1008.1 1007.7 0.6
06/12:30am 22.6 25.6 21.2 92 0.9 SSE 7 15 4 8 1008.6 1008.2 0.6
06/12:00am 22.3 26.0 21.5 95 0.5 SSE 4 6 2 3 1009.1 1008.7 0.6
 
Date/Time
EST
Tmp

°C
App
Tmp
°C
Dew
Point
°C
Rel
Hum
%
Delta-T

°C
Wind Press
QNH
hPa
Press
MSL
hPa
Rain
since
9 am
mm
Dir
 
Spd
km/h
Gust
km/h
Spd
kts
Gust
kts
05/11:30pm 22.2 25.9 21.4 95 0.5 SE 4 6 2 3 1009.4 1009.0 0.6
05/11:00pm 22.1 25.3 21.3 95 0.5 SSE 6 11 3 6 1009.7 1009.3 0.6
05/10:30pm 22.3 25.2 21.1 93 0.8 SSE 7 13 4 7 1009.9 1009.5 0.4
05/10:00pm 23.8 25.7 20.5 82 2.2 SSE 11 17 6 9 1010.1 1009.7 0.0
05/09:30pm 24.1 26.4 20.6 81 2.3 SSE 9 22 5 12 1009.9 1009.5 0.0
05/09:00pm 23.9 25.3 20.4 81 2.3 SSE 13 22 7 12 1009.7 1009.3 0.0
05/08:30pm 24.4 25.3 20.1 77 2.8 SSE 15 24 8 13 1009.6 1009.2 0.0
05/08:00pm 24.4 25.2 19.9 76 2.9 SSE 15 26 8 14 1009.3 1008.9 0.0
05/07:30pm 24.3 25.3 20.2 78 2.7 SSE 15 24 8 13 1009.0 1008.6 0.0
05/07:00pm 24.1 25.8 20.2 79 2.5 SSE 11 20 6 11 1008.5 1008.1 0.0
05/06:30pm 24.1 25.2 20.4 80 2.4 SSE 15 24 8 13 1008.2 1007.8 0.0
05/06:00pm 23.9 26.3 20.8 83 2.0 SSE 9 19 5 10 1008.1 1007.7 0.0
05/05:30pm 24.8 25.3 20.1 75 3.1 SSE 17 35 9 19 1007.8 1007.4 0.0
05/05:00pm 25.1 25.9 19.9 73 3.4 SSE 15 26 8 14 1007.5 1007.1 0.0
05/04:30pm 25.8 26.1 19.7 69 4.0 SSE 17 30 9 16 1007.3 1006.9 0.0
05/04:00pm 26.2 26.2 19.8 68 4.2 SSE 19 37 10 20 1007.1 1006.7 0.0
05/03:30pm 26.9 27.4 20.0 66 4.5 SSE 17 28 9 15 1006.8 1006.5 0.0
05/03:00pm 27.1 26.9 19.7 64 4.8 SSE 20 35 11 19 1007.0 1006.6 0.0
05/02:30pm 26.8 26.9 19.9 66 4.5 SSE 19 32 10 17 1007.1 1006.7 0.0
05/02:00pm 26.9 27.4 20.0 66 4.5 SSE 17 24 9 13 1007.2 1006.8 0.0
05/01:30pm 27.1 27.1 19.7 64 4.8 SSE 19 32 10 17 1007.6 1007.2 0.0
05/01:00pm 26.7 27.6 20.1 67 4.3 SSE 15 28 8 15 1007.8 1007.4 0.0
05/12:30pm 26.1 26.8 20.4 71 3.7 SSE 17 33 9 18 1008.1 1007.7 0.0
05/12:00pm 26.1 26.3 20.2 70 3.9 SSE 19 28 10 15 1008.3 1007.9 0.0
05/11:30am 26.1 27.2 20.4 71 3.7 SSE 15 24 8 13 1008.2 1007.8 0.0
05/11:00am 25.9 27.1 20.7 73 3.4 SSE 15 22 8 12 1008.4 1008.0 0.0
05/10:30am 26.1 26.7 20.2 70 3.9 SSE 17 28 9 15 1008.6 1008.2 0.0
05/10:00am 26.2 27.3 20.5 71 3.7 SSE 15 24 8 13 1008.6 1008.2 0.0
05/09:30am 25.4 26.8 20.4 74 3.3 SSE 13 28 7 15 1008.6 1008.2 0.0
05/09:00am 25.1 26.6 20.6 76 3.0 SSE 13 22 7 12 1008.4 1008.0 2.4
05/08:30am 25.0 27.3 20.7 77 2.8 SSE 9 17 5 9 1008.2 1007.8 2.4
05/08:00am 24.4 26.8 20.9 81 2.3 SSE 9 15 5 8 1008.2 1007.8 2.4
05/07:30am 23.7 25.5 20.4 82 2.1 SSE 11 17 6 9 1007.8 1007.4 2.4
05/07:00am 23.5 25.2 20.2 82 2.1 SSE 11 19 6 10 1007.3 1006.9 2.4
05/06:30am 23.1 25.5 20.1 83 1.9 S 7 11 4 6 1007.2 1006.8 2.4
05/06:00am 22.9 25.4 20.2 85 1.8 SSE 7 11 4 6 1006.8 1006.5 2.4
05/05:30am 22.6 25.0 20.1 86 1.6 SSE 7 9 4 5 1006.2 1005.9 2.4
05/05:00am 22.5 25.6 20.2 87 1.5 SE 4 6 2 3 1006.0 1005.7 2.4
05/04:30am 22.4 25.0 20.1 87 1.5 SSE 6 6 3 3 1005.7 1005.4 2.4
05/04:00am 22.3 24.9 20.0 87 1.5 SSE 6 13 3 7 1005.3 1005.0 2.4
05/03:30am 22.3 24.7 20.0 87 1.5 SSE 7 9 4 5 1005.4 1005.1 2.4
05/03:00am 22.2 24.5 19.9 87 1.5 SSE 7 15 4 8 1005.5 1005.2 2.4
05/02:30am 22.0 24.2 19.7 87 1.5 SSE 7 11 4 6 1005.7 1005.4 2.4
05/02:00am 22.1 24.4 19.5 85 1.7 SSE 6 11 3 6 1005.7 1005.4 2.4
05/01:30am 22.0 24.3 19.5 86 1.6 SSE 6 7 3 4 1005.9 1005.6 2.4
05/01:00am 22.1 24.2 19.3 84 1.8 SSE 7 13 4 7 1006.4 1006.1 2.4
05/12:30am 22.2 24.5 19.4 84 1.8 SSE 6 9 3 5 1007.0 1006.6 2.4
05/12:00am 22.2 24.9 19.4 84 1.8 SSE 4 7 2 4 1007.4 1007.0 2.4
 
Date/Time
EST
Tmp

°C
App
Tmp
°C
Dew
Point
°C
Rel
Hum
%
Delta-T

°C
Wind Press
QNH
hPa
Press
MSL
hPa
Rain
since
9 am
mm
Dir
 
Spd
km/h
Gust
km/h
Spd
kts
Gust
kts
04/11:30pm 22.3 24.7 19.7 85 1.7 SSE 6 9 3 5 1007.7 1007.3 2.4
04/11:00pm 22.4 24.9 19.8 85 1.7 SSE 6 9 3 5 1008.1 1007.7 2.4
04/10:30pm 22.4 24.4 19.9 86 1.6 SSE 9 15 5 8 1008.2 1007.8 2.4
04/10:00pm 22.9 24.5 19.9 83 1.9 SSE 11 17 6 9 1008.4 1008.0 2.4
04/09:30pm 23.2 25.5 20.7 86 1.6 SSE 9 15 5 8 1008.5 1008.1 2.4
04/09:00pm 23.2 26.3 21.1 88 1.4 SSE 6 11 3 6 1008.3 1007.9 2.4

Latest Capital City Observations: Canberra | Sydney | Melbourne | Brisbane | Adelaide | Perth | Hobart | Darwin

Other Formats:

Comma delimited format used in spreadsheet applications
http://www.bom.gov.au/fwo/IDQ60901/IDQ60901.94566.axf

JavaScript Object Notation format (JSON) in row-major order
http://www.bom.gov.au/fwo/IDQ60901/IDQ60901.94566.json